Time,TemperatureF,DewpointF,PressureIn,WindDirection,WindDirectionDegrees,WindSpeedMPH,WindSpeedGustMPH,Humidity,HourlyPrecipIn,Conditions,Clouds,dailyrainin,SoftwareType,DateUTC
2013-01-05 00:00:00,57.0,54.7,30.18,North,0,0.0,0.0,92,0.00,,,0.03,Wunderground v.1.15,2013-01-05 05:00:00,
2013-01-05 00:02:00,56.9,54.6,30.17,North,0,0.0,0.0,92,0.00,,,0.00,Wunderground v.1.15,2013-01-05 05:02:00,
2013-01-05 00:03:00,56.9,54.6,30.17,North,0,0.0,0.0,92,0.00,,,0.00,Wunderground v.1.15,2013-01-05 05:03:00,
2013-01-05 00:07:00,56.9,54.6,30.17,North,8,0.0,1.0,92,0.00,,,0.00,Wunderground v.1.15,2013-01-05 05:07:00,
2013-01-05 00:12:00,56.7,54.4,30.17,North,357,0.0,0.0,92,0.00,,,0.00,Wunderground v.1.15,2013-01-05 05:12:00,
2013-01-05 00:18:00,56.7,54.4,30.17,NNW,340,0.0,0.0,92,0.00,,,0.00,Wunderground v.1.15,2013-01-05 05:18:00,
2013-01-05 00:23:00,56.6,54.3,30.17,North,0,0.0,0.0,92,0.00,,,0.00,Wunderground v.1.15,2013-01-05 05:23:00,
2013-01-05 00:28:00,56.6,54.3,30.17,North,0,0.0,0.0,92,0.00,,,0.00,Wunderground v.1.15,2013-01-05 05:28:00,
2013-01-05 00:34:00,56.5,54.2,30.17,North,0,0.0,0.0,92,0.00,,,0.00,Wunderground v.1.15,2013-01-05 05:34:00,
2013-01-05 00:39:00,56.5,54.2,30.17,North,0,0.0,0.0,92,0.00,,,0.00,Wunderground v.1.15,2013-01-05 05:39:00,
2013-01-05 00:44:00,56.3,54.0,30.17,WNW,301,0.0,0.0,92,0.00,,,0.00,Wunderground v.1.15,2013-01-05 05:44:00,
2013-01-05 00:49:00,56.2,53.9,30.16,NW,315,0.0,0.0,92,0.00,,,0.00,Wunderground v.1.15,2013-01-05 05:49:00,
2013-01-05 00:55:00,56.2,53.9,30.16,North,0,0.0,0.0,92,0.00,,,0.00,Wunderground v.1.15,2013-01-05 05:55:00,
2013-01-05 01:00:00,56.0,53.7,30.16,North,3,0.0,0.0,92,0.00,,,0.00,Wunderground v.1.15,2013-01-05 06:00:00,
2013-01-05 01:06:00,55.9,53.6,30.16,North,3,0.0,0.0,92,0.00,,,0.00,Wunderground v.1.15,2013-01-05 06:06:00,
2013-01-05 01:11:00,55.7,53.4,30.16,North,7,0.0,0.0,92,0.00,,,0.00,Wunderground v.1.15,2013-01-05 06:11:00,
2013-01-05 01:16:00,55.7,53.4,30.16,North,1,1.0,1.0,92,0.00,,,0.00,Wunderground v.1.15,2013-01-05 06:16:00,
2013-01-05 01:21:00,55.6,53.0,30.16,North,6,0.0,0.0,91,0.00,,,0.00,Wunderground v.1.15,2013-01-05 06:21:00,
2013-01-05 01:27:00,55.3,52.7,30.16,North,0,0.0,0.0,91,0.00,,,0.00,Wunderground v.1.15,2013-01-05 06:27:00,
2013-01-05 01:32:00,55.1,52.5,30.16,North,354,0.0,0.0,91,0.00,,,0.00,Wunderground v.1.15,2013-01-05 06:32:00,
2013-01-05 01:37:00,55.1,52.8,30.16,North,4,0.0,0.0,92,0.00,,,0.00,Wunderground v.1.15,2013-01-05 06:37:00,
2013-01-05 01:42:00,55.1,52.5,30.16,North,0,0.0,0.0,91,0.00,,,0.00,Wunderground v.1.15,2013-01-05 06:42:00,
2013-01-05 01:48:00,55.0,52.4,30.15,NNE,27,0.0,0.0,91,0.00,,,0.00,Wunderground v.1.15,2013-01-05 06:48:00,
2013-01-05 01:53:00,55.0,52.7,30.15,North,1,0.0,0.0,92,0.00,,,0.00,Wunderground v.1.15,2013-01-05 06:53:00,
2013-01-05 01:58:00,54.8,52.5,30.15,NNW,347,0.0,0.0,92,0.00,,,0.00,Wunderground v.1.15,2013-01-05 06:58:00,
2013-01-05 02:03:00,54.8,52.2,30.15,North,7,2.0,6.0,91,0.00,,,0.00,Wunderground v.1.15,2013-01-05 07:03:00,
2013-01-05 02:08:00,54.7,52.1,30.15,NNE,23,0.0,6.0,91,0.00,,,0.00,Wunderground v.1.15,2013-01-05 07:08:00,
2013-01-05 02:13:00,54.4,51.8,30.15,North,357,0.0,2.0,91,0.00,,,0.00,Wunderground v.1.15,2013-01-05 07:13:00,
2013-01-05 02:18:00,54.4,52.1,30.15,North,0,0.0,3.0,92,0.00,,,0.00,Wunderground v.1.15,2013-01-05 07:18:00,
2013-01-05 02:23:00,54.4,51.8,30.15,NNE,14,0.0,0.0,91,0.00,,,0.00,Wunderground v.1.15,2013-01-05 07:23:00,
2013-01-05 02:28:00,54.2,51.9,30.15,NNW,346,0.0,0.0,92,0.00,,,0.00,Wunderground v.1.15,2013-01-05 07:28:00,
2013-01-05 02:33:00,54.2,51.9,30.15,NE,52,0.0,0.0,92,0.00,,,0.00,Wunderground v.1.15,2013-01-05 07:33:00,
2013-01-05 02:38:00,54.2,51.9,30.15,NE,44,0.0,0.0,92,0.00,,,0.00,Wunderground v.1.15,2013-01-05 07:38:00,
2013-01-05 02:43:00,54.2,51.9,30.15,ENE,65,0.0,0.0,92,0.00,,,0.00,Wunderground v.1.15,2013-01-05 07:43:00,
2013-01-05 02:48:00,54.1,51.8,30.14,SE,130,0.0,1.0,92,0.00,,,0.00,Wunderground v.1.15,2013-01-05 07:48:00,
2013-01-05 02:53:00,54.1,51.8,30.14,NW,315,0.0,0.0,92,0.00,,,0.00,Wunderground v.1.15,2013-01-05 07:53:00,
2013-01-05 02:58:00,54.1,51.8,30.14,WNW,294,0.0,0.0,92,0.00,,,0.00,Wunderground v.1.15,2013-01-05 07:58:00,
2013-01-05 03:03:00,54.1,51.8,30.15,NW,313,0.0,0.0,92,0.00,,,0.00,Wunderground v.1.15,2013-01-05 08:03:00,
2013-01-05 03:08:00,54.1,51.8,30.15,WNW,292,0.0,0.0,92,0.00,,,0.00,Wunderground v.1.15,2013-01-05 08:08:00,
2013-01-05 03:13:00,54.1,51.8,30.15,NW,315,0.0,0.0,92,0.00,,,0.00,Wunderground v.1.15,2013-01-05 08:13:00,
2013-01-05 03:18:00,53.9,51.6,30.15,WNW,292,0.0,0.0,92,0.00,,,0.00,Wunderground v.1.15,2013-01-05 08:18:00,
2013-01-05 03:23:00,53.9,51.6,30.15,North,0,0.0,0.0,92,0.00,,,0.00,Wunderground v.1.15,2013-01-05 08:23:00,
2013-01-05 03:28:00,53.9,51.6,30.15,North,0,0.0,1.0,92,0.00,,,0.00,Wunderground v.1.15,2013-01-05 08:28:00,
2013-01-05 03:33:00,53.9,51.6,30.15,ESE,113,0.0,0.0,92,0.00,,,0.00,Wunderground v.1.15,2013-01-05 08:33:00,
2013-01-05 03:38:00,53.9,51.6,30.15,NNE,13,0.0,4.0,92,0.00,,,0.00,Wunderground v.1.15,2013-01-05 08:38:00,
2013-01-05 03:43:00,54.1,51.8,30.15,North,3,0.0,2.0,92,0.00,,,0.00,Wunderground v.1.15,2013-01-05 08:43:00,
2013-01-05 03:48:00,54.1,51.8,30.15,North,1,0.0,7.0,92,0.00,,,0.00,Wunderground v.1.15,2013-01-05 08:48:00,
2013-01-05 03:53:00,54.2,51.9,30.15,NNE,25,0.0,5.0,92,0.00,,,0.00,Wunderground v.1.15,2013-01-05 08:53:00,
2013-01-05 03:58:00,54.1,51.8,30.15,ENE,78,0.0,5.0,92,0.00,,,0.00,Wunderground v.1.15,2013-01-05 08:58:00,
2013-01-05 04:03:00,53.9,51.6,30.14,NNW,342,2.0,7.0,92,0.00,,,0.00,Wunderground v.1.15,2013-01-05 09:03:00,
2013-01-05 04:08:00,53.9,51.6,30.14,NNE,16,0.0,7.0,92,0.00,,,0.00,Wunderground v.1.15,2013-01-05 09:08:00,
2013-01-05 04:13:00,53.9,51.6,30.14,North,3,0.0,10.0,92,0.00,,,0.00,Wunderground v.1.15,2013-01-05 09:13:00,
2013-01-05 04:18:00,53.8,51.5,30.14,NNE,16,1.0,10.0,92,0.00,,,0.00,Wunderground v.1.15,2013-01-05 09:18:00,
2013-01-05 04:23:00,53.8,51.5,30.14,East,90,0.0,3.0,92,0.00,,,0.00,Wunderground v.1.15,2013-01-05 09:23:00,
2013-01-05 04:28:00,53.8,51.5,30.14,NE,56,0.0,3.0,92,0.00,,,0.00,Wunderground v.1.15,2013-01-05 09:28:00,
2013-01-05 04:33:00,53.8,51.5,30.15,NNE,13,0.0,5.0,92,0.00,,,0.00,Wunderground v.1.15,2013-01-05 09:33:00,
2013-01-05 04:38:00,53.8,51.5,30.15,SSE,155,0.0,6.0,92,0.00,,,0.00,Wunderground v.1.15,2013-01-05 09:38:00,
2013-01-05 04:43:00,53.8,51.5,30.15,North,8,0.0,0.0,92,0.00,,,0.00,Wunderground v.1.15,2013-01-05 09:43:00,
2013-01-05 04:48:00,53.8,51.5,30.15,NNE,16,0.0,1.0,92,0.00,,,0.00,Wunderground v.1.15,2013-01-05 09:48:00,
2013-01-05 04:53:00,53.6,51.3,30.15,NE,45,0.0,0.0,92,0.00,,,0.00,Wunderground v.1.15,2013-01-05 09:53:00,
2013-01-05 04:58:00,53.6,51.3,30.15,East,89,0.0,0.0,92,0.00,,,0.00,Wunderground v.1.15,2013-01-05 09:58:00,
2013-01-05 05:03:00,53.6,51.3,30.15,East,99,0.0,0.0,92,0.00,,,0.00,Wunderground v.1.15,2013-01-05 10:03:00,
2013-01-05 05:08:00,53.6,51.3,30.15,NE,37,0.0,0.0,92,0.00,,,0.00,Wunderground v.1.15,2013-01-05 10:08:00,
2013-01-05 05:13:00,53.6,51.3,30.15,ESE,106,0.0,7.0,92,0.00,,,0.00,Wunderground v.1.15,2013-01-05 10:13:00,
2013-01-05 05:18:00,53.5,51.2,30.15,East,99,0.0,7.0,92,0.00,,,0.00,Wunderground v.1.15,2013-01-05 10:18:00,
2013-01-05 05:23:00,53.5,51.2,30.15,NE,38,0.0,0.0,92,0.00,,,0.00,Wunderground v.1.15,2013-01-05 10:23:00,
2013-01-05 05:28:00,53.5,51.2,30.15,ENE,69,0.0,5.0,92,0.00,,,0.00,Wunderground v.1.15,2013-01-05 10:28:00,
2013-01-05 05:33:00,53.5,51.2,30.15,East,89,0.0,3.0,92,0.00,,,0.00,Wunderground v.1.15,2013-01-05 10:33:00,
2013-01-05 05:38:00,53.3,51.0,30.15,North,11,0.0,3.0,92,0.00,,,0.00,Wunderground v.1.15,2013-01-05 10:38:00,
2013-01-05 05:43:00,53.3,51.0,30.15,NE,51,0.0,0.0,92,0.00,,,0.00,Wunderground v.1.15,2013-01-05 10:43:00,
2013-01-05 05:48:00,53.3,51.0,30.15,NE,51,0.0,0.0,92,0.00,,,0.00,Wunderground v.1.15,2013-01-05 10:48:00,
2013-01-05 05:53:00,53.3,51.0,30.15,SSE,161,0.0,0.0,92,0.00,,,0.00,Wunderground v.1.15,2013-01-05 10:53:00,
2013-01-05 05:58:00,53.2,50.9,30.15,NE,37,0.0,0.0,92,0.00,,,0.00,Wunderground v.1.15,2013-01-05 10:58:00,
2013-01-05 06:03:00,53.2,50.9,30.16,North,0,0.0,0.0,92,0.00,,,0.00,Wunderground v.1.15,2013-01-05 11:03:00,
2013-01-05 06:09:00,53.2,50.9,30.16,North,0,0.0,0.0,92,0.00,,,0.00,Wunderground v.1.15,2013-01-05 11:09:00,
2013-01-05 06:14:00,53.1,50.8,30.16,North,0,0.0,0.0,92,0.00,,,0.00,Wunderground v.1.15,2013-01-05 11:14:00,
2013-01-05 06:19:00,53.1,50.8,30.16,North,353,0.0,2.0,92,0.00,,,0.00,Wunderground v.1.15,2013-01-05 11:19:00,
2013-01-05 06:24:00,52.9,50.3,30.16,ESE,109,0.0,1.0,91,0.00,,,0.00,Wunderground v.1.15,2013-01-05 11:24:00,
2013-01-05 06:29:00,52.8,50.2,30.16,North,11,0.0,1.0,91,0.00,,,0.00,Wunderground v.1.15,2013-01-05 11:29:00,
2013-01-05 06:34:00,52.5,49.9,30.16,East,93,0.0,6.0,91,0.00,,,0.00,Wunderground v.1.15,2013-01-05 11:34:00,
2013-01-05 06:39:00,52.3,49.8,30.16,North,0,3.0,6.0,91,0.00,,,0.00,Wunderground v.1.15,2013-01-05 11:39:00,
2013-01-05 06:44:00,52.3,49.8,30.16,NNE,14,0.0,0.0,91,0.00,,,0.00,Wunderground v.1.15,2013-01-05 11:44:00,
2013-01-05 06:49:00,52.2,49.7,30.16,NNE,20,0.0,0.0,91,0.00,,,0.00,Wunderground v.1.15,2013-01-05 11:49:00,
2013-01-05 06:54:00,51.9,49.4,30.16,ENE,75,0.0,2.0,91,0.00,,,0.00,Wunderground v.1.15,2013-01-05 11:54:00,
2013-01-05 06:59:00,51.7,49.2,30.16,NE,40,0.0,3.0,91,0.00,,,0.00,Wunderground v.1.15,2013-01-05 11:59:00,
2013-01-05 07:04:00,51.6,49.1,30.16,NE,45,0.0,0.0,91,0.00,,,0.00,Wunderground v.1.15,2013-01-05 12:04:00,
2013-01-05 07:09:00,51.6,49.1,30.16,SSW,200,0.0,3.0,91,0.00,,,0.00,Wunderground v.1.15,2013-01-05 12:09:00,
2013-01-05 07:14:00,51.4,48.6,30.16,WSW,251,0.0,0.0,90,0.00,,,0.00,Wunderground v.1.15,2013-01-05 12:14:00,
2013-01-05 07:19:00,51.3,48.5,30.16,SE,143,0.0,0.0,90,0.00,,,0.00,Wunderground v.1.15,2013-01-05 12:19:00,
2013-01-05 07:24:00,51.3,48.5,30.16,ENE,59,0.0,0.0,90,0.00,,,0.00,Wunderground v.1.15,2013-01-05 12:24:00,
2013-01-05 07:29:00,51.3,48.5,30.16,NE,51,0.0,0.0,90,0.00,,,0.00,Wunderground v.1.15,2013-01-05 12:29:00,
2013-01-05 07:34:00,51.3,48.5,30.17,NNE,14,0.0,0.0,90,0.00,,,0.00,Wunderground v.1.15,2013-01-05 12:34:00,
2013-01-05 07:39:00,51.4,48.6,30.17,NNE,14,0.0,0.0,90,0.00,,,0.00,Wunderground v.1.15,2013-01-05 12:39:00,
2013-01-05 07:44:00,51.4,48.6,30.17,NNE,14,0.0,0.0,90,0.00,,,0.00,Wunderground v.1.15,2013-01-05 12:44:00,
2013-01-05 07:49:00,51.3,48.5,30.18,ESE,103,0.0,0.0,90,0.00,,,0.00,Wunderground v.1.15,2013-01-05 12:49:00,
2013-01-05 07:54:00,51.3,48.5,30.18,NE,40,0.0,0.0,90,0.00,,,0.00,Wunderground v.1.15,2013-01-05 12:54:00,
2013-01-05 07:59:00,51.4,48.6,30.18,ENE,58,0.0,0.0,90,0.00,,,0.00,Wunderground v.1.15,2013-01-05 12:59:00,
2013-01-05 08:04:00,51.4,48.6,30.18,NNE,30,0.0,5.0,90,0.00,,,0.00,Wunderground v.1.15,2013-01-05 13:04:00,
2013-01-05 08:09:00,51.7,48.9,30.18,NNE,20,0.0,5.0,90,0.00,,,0.00,Wunderground v.1.15,2013-01-05 13:09:00,
2013-01-05 08:14:00,51.9,49.1,30.18,NNE,31,0.0,8.0,90,0.00,,,0.00,Wunderground v.1.15,2013-01-05 13:14:00,
2013-01-05 08:19:00,52.2,49.4,30.19,NE,41,0.0,8.0,90,0.00,,,0.00,Wunderground v.1.15,2013-01-05 13:19:00,
2013-01-05 08:24:00,52.3,49.5,30.19,East,79,0.0,5.0,90,0.00,,,0.00,Wunderground v.1.15,2013-01-05 13:24:00,
2013-01-05 08:29:00,52.3,49.2,30.19,East,99,0.0,5.0,89,0.00,,,0.00,Wunderground v.1.15,2013-01-05 13:29:00,
2013-01-05 08:34:00,52.2,49.1,30.19,NNW,337,0.0,0.0,89,0.00,,,0.00,Wunderground v.1.15,2013-01-05 13:34:00,
2013-01-05 08:39:00,52.3,49.2,30.19,North,4,1.0,1.0,89,0.00,,,0.00,Wunderground v.1.15,2013-01-05 13:39:00,
2013-01-05 08:44:00,52.5,49.4,30.19,NE,49,0.0,5.0,89,0.00,,,0.00,Wunderground v.1.15,2013-01-05 13:44:00,
2013-01-05 08:49:00,52.6,49.4,30.19,NE,55,0.0,6.0,89,0.00,,,0.00,Wunderground v.1.15,2013-01-05 13:49:00,
2013-01-05 08:54:00,52.8,49.6,30.19,East,96,0.0,3.0,89,0.00,,,0.00,Wunderground v.1.15,2013-01-05 13:54:00,
2013-01-05 08:59:00,52.9,49.7,30.19,East,97,0.0,8.0,89,0.00,,,0.00,Wunderground v.1.15,2013-01-05 13:59:00,
2013-01-05 09:04:00,53.2,50.0,30.19,ESE,102,0.0,7.0,89,0.00,,,0.00,Wunderground v.1.15,2013-01-05 14:04:00,
2013-01-05 09:09:00,53.5,50.3,30.19,East,88,0.0,7.0,89,0.00,,,0.00,Wunderground v.1.15,2013-01-05 14:09:00,
2013-01-05 09:14:00,53.6,50.4,30.19,ENE,59,0.0,3.0,89,0.00,,,0.00,Wunderground v.1.15,2013-01-05 14:14:00,
2013-01-05 09:19:00,53.9,50.7,30.19,East,89,1.0,5.0,89,0.00,,,0.00,Wunderground v.1.15,2013-01-05 14:19:00,
2013-01-05 09:24:00,54.1,50.6,30.19,East,82,0.0,5.0,88,0.00,,,0.00,Wunderground v.1.15,2013-01-05 14:24:00,
2013-01-05 09:29:00,54.5,51.0,30.19,East,99,0.0,6.0,88,0.00,,,0.00,Wunderground v.1.15,2013-01-05 14:29:00,
2013-01-05 09:34:00,54.8,51.3,30.19,NNW,343,0.0,3.0,88,0.00,,,0.00,Wunderground v.1.15,2013-01-05 14:34:00,
2013-01-05 09:39:00,55.3,51.8,30.19,East,88,1.0,7.0,88,0.00,,,0.00,Wunderground v.1.15,2013-01-05 14:39:00,
2013-01-05 09:44:00,55.6,52.1,30.19,ENE,65,1.0,7.0,88,0.00,,,0.00,Wunderground v.1.15,2013-01-05 14:44:00,
2013-01-05 09:49:00,55.7,51.9,30.19,East,100,0.0,7.0,87,0.00,,,0.00,Wunderground v.1.15,2013-01-05 14:49:00,
2013-01-05 09:54:00,56.0,52.2,30.19,ENE,76,2.0,10.0,87,0.00,,,0.00,Wunderground v.1.15,2013-01-05 14:54:00,
2013-01-05 09:59:00,56.3,52.5,30.19,ENE,71,2.0,10.0,87,0.00,,,0.00,Wunderground v.1.15,2013-01-05 14:59:00,
2013-01-05 10:04:00,56.5,52.7,30.19,North,352,0.0,10.0,87,0.00,,,0.00,Wunderground v.1.15,2013-01-05 15:04:00,
2013-01-05 10:09:00,56.7,52.9,30.19,East,96,0.0,10.0,87,0.00,,,0.00,Wunderground v.1.15,2013-01-05 15:09:00,
2013-01-05 10:14:00,57.0,53.2,30.19,ESE,123,0.0,3.0,87,0.00,,,0.00,Wunderground v.1.15,2013-01-05 15:14:00,
2013-01-05 10:19:00,57.5,53.3,30.19,NE,35,0.0,3.0,86,0.00,,,0.00,Wunderground v.1.15,2013-01-05 15:19:00,
2013-01-05 10:24:00,58.0,54.2,30.19,East,99,0.0,0.0,87,0.00,,,0.00,Wunderground v.1.15,2013-01-05 15:24:00,
2013-01-05 10:29:00,58.3,54.1,30.19,East,92,0.0,9.0,86,0.00,,,0.00,Wunderground v.1.15,2013-01-05 15:29:00,
2013-01-05 10:34:00,58.9,54.7,30.18,East,92,0.0,1.0,86,0.00,,,0.00,Wunderground v.1.15,2013-01-05 15:34:00,
2013-01-05 10:39:00,59.3,54.8,30.18,ESE,110,2.0,12.0,85,0.00,,,0.00,Wunderground v.1.15,2013-01-05 15:39:00,
2013-01-05 10:45:00,59.9,55.4,30.18,ENE,58,0.0,2.0,85,0.00,,,0.00,Wunderground v.1.15,2013-01-05 15:45:00,
2013-01-05 10:50:00,60.7,55.8,30.17,ENE,68,5.0,5.0,84,0.00,,,0.00,Wunderground v.1.15,2013-01-05 15:50:00,
2013-01-05 10:55:00,61.2,56.3,30.17,East,85,0.0,6.0,84,0.00,,,0.00,Wunderground v.1.15,2013-01-05 15:55:00,
2013-01-05 11:00:00,61.8,56.9,30.17,East,99,0.0,6.0,84,0.00,,,0.00,Wunderground v.1.15,2013-01-05 16:00:00,
2013-01-05 11:05:00,62.4,57.2,30.17,ESE,103,7.0,10.0,83,0.00,,,0.00,Wunderground v.1.15,2013-01-05 16:05:00,
2013-01-05 11:10:00,62.7,57.1,30.17,East,90,0.0,10.0,82,0.00,,,0.00,Wunderground v.1.15,2013-01-05 16:10:00,
2013-01-05 11:15:00,63.1,57.5,30.17,ESE,121,0.0,3.0,82,0.00,,,0.00,Wunderground v.1.15,2013-01-05 16:15:00,
2013-01-05 11:20:00,63.4,57.8,30.17,East,83,2.0,11.0,82,0.00,,,0.00,Wunderground v.1.15,2013-01-05 16:20:00,
2013-01-05 11:25:00,63.9,58.3,30.17,East,88,0.0,8.0,82,0.00,,,0.00,Wunderground v.1.15,2013-01-05 16:25:00,
2013-01-05 11:30:00,64.5,58.5,30.17,ESE,119,0.0,2.0,81,0.00,,,0.00,Wunderground v.1.15,2013-01-05 16:30:00,
2013-01-05 11:35:00,65.2,59.2,30.16,NNW,332,0.0,5.0,81,0.00,,,0.00,Wunderground v.1.15,2013-01-05 16:35:00,
2013-01-05 11:40:00,65.5,59.2,30.16,ESE,109,0.0,1.0,80,0.00,,,0.00,Wunderground v.1.15,2013-01-05 16:40:00,
2013-01-05 11:45:00,65.8,59.5,30.16,East,83,0.0,2.0,80,0.00,,,0.00,Wunderground v.1.15,2013-01-05 16:45:00,
2013-01-05 11:50:00,66.1,59.7,30.15,East,89,7.0,8.0,80,0.00,,,0.00,Wunderground v.1.15,2013-01-05 16:50:00,
2013-01-05 11:55:00,66.4,60.0,30.15,East,88,0.0,8.0,80,0.00,,,0.00,Wunderground v.1.15,2013-01-05 16:55:00,
2013-01-05 12:00:00,66.8,60.1,30.15,ENE,78,0.0,1.0,79,0.00,,,0.00,Wunderground v.1.15,2013-01-05 17:00:00,
2013-01-05 12:05:00,67.1,60.4,30.14,ENE,75,0.0,2.0,79,0.00,,,0.00,Wunderground v.1.15,2013-01-05 17:05:00,
2013-01-05 12:10:00,67.3,60.2,30.14,East,97,0.0,0.0,78,0.00,,,0.00,Wunderground v.1.15,2013-01-05 17:10:00,
2013-01-05 12:15:00,67.6,60.5,30.14,East,86,0.0,2.0,78,0.00,,,0.00,Wunderground v.1.15,2013-01-05 17:15:00,
2013-01-05 12:20:00,68.1,61.0,30.13,ENE,73,0.0,0.0,78,0.00,,,0.00,Wunderground v.1.15,2013-01-05 17:20:00,
2013-01-05 12:25:00,68.6,61.5,30.13,ESE,123,0.0,6.0,78,0.00,,,0.00,Wunderground v.1.15,2013-01-05 17:25:00,
2013-01-05 12:30:00,69.4,61.9,30.12,ESE,113,0.0,0.0,77,0.00,,,0.00,Wunderground v.1.15,2013-01-05 17:30:00,
2013-01-05 12:35:00,70.1,62.6,30.12,ESE,120,0.0,6.0,77,0.00,,,0.00,Wunderground v.1.15,2013-01-05 17:35:00,
2013-01-05 12:40:00,70.8,63.2,30.12,SSE,164,0.0,0.0,77,0.00,,,0.00,Wunderground v.1.15,2013-01-05 17:40:00,
2013-01-05 12:45:00,71.1,63.1,30.11,East,88,0.0,1.0,76,0.00,,,0.00,Wunderground v.1.15,2013-01-05 17:45:00,
2013-01-05 12:50:00,71.5,63.2,30.11,ESE,117,0.0,0.0,75,0.00,,,0.00,Wunderground v.1.15,2013-01-05 17:50:00,
2013-01-05 12:55:00,71.6,63.3,30.11,East,80,5.0,5.0,75,0.00,,,0.00,Wunderground v.1.15,2013-01-05 17:55:00,
2013-01-05 13:00:00,71.8,63.1,30.11,East,86,0.0,1.0,74,0.00,,,0.00,Wunderground v.1.15,2013-01-05 18:00:00,
2013-01-05 13:05:00,72.1,63.4,30.11,East,88,0.0,6.0,74,0.00,,,0.00,Wunderground v.1.15,2013-01-05 18:05:00,
2013-01-05 13:10:00,72.5,63.7,30.11,ENE,62,0.0,0.0,74,0.00,,,0.00,Wunderground v.1.15,2013-01-05 18:10:00,
2013-01-05 13:15:00,72.7,63.5,30.10,NNE,27,0.0,0.0,73,0.00,,,0.00,Wunderground v.1.15,2013-01-05 18:15:00,
2013-01-05 13:20:00,72.8,63.6,30.10,ENE,68,0.0,0.0,73,0.00,,,0.00,Wunderground v.1.15,2013-01-05 18:20:00,
2013-01-05 13:25:00,73.2,63.6,30.10,SE,143,0.0,0.0,72,0.00,,,0.00,Wunderground v.1.15,2013-01-05 18:25:00,
2013-01-05 13:30:00,73.5,63.9,30.10,East,79,0.0,0.0,72,0.00,,,0.00,Wunderground v.1.15,2013-01-05 18:30:00,
2013-01-05 13:35:00,73.7,64.1,30.10,NNW,333,0.0,1.0,72,0.00,,,0.00,Wunderground v.1.15,2013-01-05 18:35:00,
2013-01-05 13:40:00,74.0,64.0,30.10,NNE,30,0.0,0.0,71,0.00,,,0.00,Wunderground v.1.15,2013-01-05 18:40:00,
2013-01-05 13:45:00,74.4,64.4,30.09,NNE,30,0.0,0.0,71,0.00,,,0.00,Wunderground v.1.15,2013-01-05 18:45:00,
2013-01-05 13:50:00,74.6,64.2,30.09,East,93,0.0,0.0,70,0.00,,,0.00,Wunderground v.1.15,2013-01-05 18:50:00,
2013-01-05 13:55:00,74.7,64.3,30.09,NE,49,0.0,0.0,70,0.00,,,0.00,Wunderground v.1.15,2013-01-05 18:55:00,
2013-01-05 14:01:00,74.7,64.3,30.09,NE,48,0.0,1.0,70,0.00,,,0.00,Wunderground v.1.15,2013-01-05 19:01:00,
2013-01-05 14:06:00,74.7,63.9,30.09,NNE,25,0.0,1.0,69,0.00,,,0.00,Wunderground v.1.15,2013-01-05 19:06:00,
2013-01-05 14:11:00,74.9,64.0,30.09,East,96,0.0,0.0,69,0.00,,,0.00,Wunderground v.1.15,2013-01-05 19:11:00,
2013-01-05 14:16:00,74.7,63.9,30.08,East,86,0.0,0.0,69,0.00,,,0.00,Wunderground v.1.15,2013-01-05 19:16:00,
2013-01-05 14:20:00,74.9,63.6,30.08,ESE,103,0.0,0.0,68,0.00,,,0.00,Wunderground v.1.15,2013-01-05 19:20:00,
2013-01-05 14:26:00,75.1,63.8,30.08,SSE,161,0.0,0.0,68,0.00,,,0.00,Wunderground v.1.15,2013-01-05 19:26:00,
2013-01-05 14:30:00,75.3,64.0,30.08,SE,126,0.0,0.0,68,0.00,,,0.00,Wunderground v.1.15,2013-01-05 19:30:00,
2013-01-05 14:35:00,75.3,64.0,30.08,ESE,107,0.0,0.0,68,0.00,,,0.00,Wunderground v.1.15,2013-01-05 19:35:00,
2013-01-05 14:40:00,75.3,63.6,30.08,ESE,112,0.0,0.0,67,0.00,,,0.00,Wunderground v.1.15,2013-01-05 19:40:00,
2013-01-05 14:46:00,75.4,63.7,30.07,ESE,112,0.0,0.0,67,0.00,,,0.00,Wunderground v.1.15,2013-01-05 19:46:00,
2013-01-05 14:50:00,75.3,63.6,30.07,SSE,161,0.0,0.0,67,0.00,,,0.00,Wunderground v.1.15,2013-01-05 19:50:00,
2013-01-05 14:55:00,75.3,63.6,30.07,North,0,0.0,1.0,67,0.00,,,0.00,Wunderground v.1.15,2013-01-05 19:55:00,
2013-01-05 15:01:00,75.3,63.6,30.08,East,90,0.0,0.0,67,0.00,,,0.00,Wunderground v.1.15,2013-01-05 20:01:00,
2013-01-05 15:05:00,75.1,63.0,30.08,West,271,0.0,1.0,66,0.00,,,0.00,Wunderground v.1.15,2013-01-05 20:05:00,
2013-01-05 15:11:00,74.7,62.6,30.08,West,268,0.0,0.0,66,0.00,,,0.00,Wunderground v.1.15,2013-01-05 20:11:00,
2013-01-05 15:16:00,74.2,62.5,30.08,West,261,0.0,2.0,67,0.00,,,0.00,Wunderground v.1.15,2013-01-05 20:16:00,
2013-01-05 15:21:00,73.9,62.2,30.08,WNW,291,0.0,6.0,67,0.00,,,0.00,Wunderground v.1.15,2013-01-05 20:21:00,
2013-01-05 15:26:00,73.2,61.6,30.08,WNW,287,2.0,7.0,67,0.00,,,0.00,Wunderground v.1.15,2013-01-05 20:26:00,
2013-01-05 15:31:00,72.5,60.9,30.09,West,264,0.0,1.0,67,0.00,,,0.00,Wunderground v.1.15,2013-01-05 20:31:00,
2013-01-05 15:36:00,71.8,60.2,30.09,West,268,0.0,1.0,67,0.00,,,0.00,Wunderground v.1.15,2013-01-05 20:36:00,
2013-01-05 15:41:00,71.1,60.0,30.09,WNW,285,0.0,0.0,68,0.00,,,0.00,Wunderground v.1.15,2013-01-05 20:41:00,
2013-01-05 15:46:00,70.6,59.5,30.09,West,280,0.0,2.0,68,0.00,,,0.00,Wunderground v.1.15,2013-01-05 20:46:00,
2013-01-05 15:51:00,70.1,59.5,30.09,West,265,0.0,0.0,69,0.00,,,0.00,Wunderground v.1.15,2013-01-05 20:51:00,
2013-01-05 15:56:00,69.8,59.2,30.09,West,264,0.0,0.0,69,0.00,,,0.00,Wunderground v.1.15,2013-01-05 20:56:00,
2013-01-05 16:01:00,69.4,59.2,30.09,West,264,0.0,0.0,70,0.00,,,0.00,Wunderground v.1.15,2013-01-05 21:01:00,
2013-01-05 16:06:00,69.1,58.9,30.09,West,265,0.0,0.0,70,0.00,,,0.00,Wunderground v.1.15,2013-01-05 21:06:00,
2013-01-05 16:11:00,69.1,59.3,30.09,West,267,0.0,0.0,71,0.00,,,0.00,Wunderground v.1.15,2013-01-05 21:11:00,
2013-01-05 16:16:00,68.9,59.1,30.09,North,0,0.0,0.0,71,0.00,,,0.00,Wunderground v.1.15,2013-01-05 21:16:00,
2013-01-05 16:21:00,68.9,59.1,30.09,North,352,0.0,0.0,71,0.00,,,0.00,Wunderground v.1.15,2013-01-05 21:21:00,
2013-01-05 16:26:00,68.8,59.0,30.09,NNE,18,0.0,0.0,71,0.00,,,0.00,Wunderground v.1.15,2013-01-05 21:26:00,
2013-01-05 16:31:00,68.6,58.8,30.09,NNW,347,0.0,0.0,71,0.00,,,0.00,Wunderground v.1.15,2013-01-05 21:31:00,
2013-01-05 16:36:00,68.4,58.6,30.09,NNW,347,0.0,0.0,71,0.00,,,0.00,Wunderground v.1.15,2013-01-05 21:36:00,
2013-01-05 16:41:00,68.4,59.0,30.09,NNW,347,0.0,0.0,72,0.00,,,0.00,Wunderground v.1.15,2013-01-05 21:41:00,
2013-01-05 16:46:00,68.4,59.0,30.09,NNW,347,0.0,0.0,72,0.00,,,0.00,Wunderground v.1.15,2013-01-05 21:46:00,
2013-01-05 16:51:00,68.3,58.9,30.09,NNW,347,0.0,0.0,72,0.00,,,0.00,Wunderground v.1.15,2013-01-05 21:51:00,
2013-01-05 16:56:00,68.3,58.9,30.09,NNW,347,0.0,0.0,72,0.00,,,0.00,Wunderground v.1.15,2013-01-05 21:56:00,
2013-01-05 17:01:00,68.1,58.7,30.09,NNW,347,0.0,0.0,72,0.00,,,0.00,Wunderground v.1.15,2013-01-05 22:01:00,
2013-01-05 17:06:00,68.1,58.7,30.09,NNW,347,0.0,0.0,72,0.00,,,0.00,Wunderground v.1.15,2013-01-05 22:06:00,
2013-01-05 17:11:00,67.9,58.5,30.09,NNW,347,0.0,0.0,72,0.00,,,0.00,Wunderground v.1.15,2013-01-05 22:11:00,
2013-01-05 17:16:00,67.9,58.9,30.10,NNW,347,0.0,0.0,73,0.00,,,0.00,Wunderground v.1.15,2013-01-05 22:16:00,
2013-01-05 17:21:00,67.8,58.4,30.10,NNW,347,0.0,0.0,72,0.00,,,0.00,Wunderground v.1.15,2013-01-05 22:21:00,
2013-01-05 17:26:00,67.6,58.6,30.10,NNW,347,0.0,0.0,73,0.00,,,0.00,Wunderground v.1.15,2013-01-05 22:26:00,
2013-01-05 17:31:00,67.6,58.6,30.10,North,349,0.0,0.0,73,0.00,,,0.00,Wunderground v.1.15,2013-01-05 22:31:00,
2013-01-05 17:36:00,67.4,58.4,30.10,North,349,0.0,0.0,73,0.00,,,0.00,Wunderground v.1.15,2013-01-05 22:36:00,
2013-01-05 17:41:00,67.3,58.3,30.10,NNW,347,0.0,0.0,73,0.00,,,0.00,Wunderground v.1.15,2013-01-05 22:41:00,
2013-01-05 17:46:00,67.3,58.3,30.11,North,349,0.0,0.0,73,0.00,,,0.00,Wunderground v.1.15,2013-01-05 22:46:00,
2013-01-05 17:51:00,67.1,58.2,30.11,NNW,347,0.0,0.0,73,0.00,,,0.00,Wunderground v.1.15,2013-01-05 22:51:00,
2013-01-05 17:56:00,66.9,58.3,30.11,NNW,347,0.0,0.0,74,0.00,,,0.00,Wunderground v.1.15,2013-01-05 22:56:00,
2013-01-05 18:01:00,66.9,58.3,30.10,NNW,347,0.0,0.0,74,0.00,,,0.00,Wunderground v.1.15,2013-01-05 23:01:00,
2013-01-05 18:06:00,66.8,58.2,30.10,NNW,347,0.0,0.0,74,0.00,,,0.00,Wunderground v.1.15,2013-01-05 23:06:00,
2013-01-05 18:11:00,66.8,58.2,30.10,NNW,347,0.0,0.0,74,0.00,,,0.00,Wunderground v.1.15,2013-01-05 23:11:00,
2013-01-05 18:16:00,66.6,58.1,30.11,NNW,347,0.0,0.0,74,0.00,,,0.00,Wunderground v.1.15,2013-01-05 23:16:00,
2013-01-05 18:21:00,66.4,58.2,30.11,NNW,342,0.0,0.0,75,0.00,,,0.00,Wunderground v.1.15,2013-01-05 23:21:00,
2013-01-05 18:26:00,66.3,58.1,30.11,NNW,340,0.0,0.0,75,0.00,,,0.00,Wunderground v.1.15,2013-01-05 23:26:00,
2013-01-05 18:31:00,66.1,57.9,30.11,NNW,340,0.0,0.0,75,0.00,,,0.00,Wunderground v.1.15,2013-01-05 23:31:00,
2013-01-05 18:36:00,66.0,57.8,30.11,NNW,340,0.0,0.0,75,0.00,,,0.00,Wunderground v.1.15,2013-01-05 23:36:00,
2013-01-05 18:41:00,66.0,58.2,30.11,NNW,342,0.0,1.0,76,0.00,,,0.00,Wunderground v.1.15,2013-01-05 23:41:00,
2013-01-05 18:46:00,65.8,58.0,30.12,NNW,342,0.0,1.0,76,0.00,,,0.00,Wunderground v.1.15,2013-01-05 23:46:00,
2013-01-05 18:51:00,65.6,57.8,30.12,NNW,342,0.0,0.0,76,0.00,,,0.00,Wunderground v.1.15,2013-01-05 23:51:00,
2013-01-05 18:56:00,65.6,57.8,30.12,NNW,342,0.0,0.0,76,0.00,,,0.00,Wunderground v.1.15,2013-01-05 23:56:00,
2013-01-05 19:01:00,65.5,57.7,30.13,NNW,342,0.0,0.0,76,0.00,,,0.00,Wunderground v.1.15,2013-01-06 00:01:00,
2013-01-05 19:06:00,65.3,57.5,30.13,NNW,342,0.0,0.0,76,0.00,,,0.00,Wunderground v.1.15,2013-01-06 00:06:00,
2013-01-05 19:11:00,65.3,57.5,30.13,NNW,342,0.0,0.0,76,0.00,,,0.00,Wunderground v.1.15,2013-01-06 00:11:00,
2013-01-05 19:17:00,65.2,57.4,30.13,North,0,0.0,2.0,76,0.00,,,0.00,Wunderground v.1.15,2013-01-06 00:17:00,
2013-01-05 19:22:00,65.0,57.2,30.13,North,1,0.0,0.0,76,0.00,,,0.00,Wunderground v.1.15,2013-01-06 00:22:00,
2013-01-05 19:27:00,65.0,57.2,30.13,North,350,0.0,5.0,76,0.00,,,0.00,Wunderground v.1.15,2013-01-06 00:27:00,
2013-01-05 19:32:00,64.8,57.1,30.13,North,7,0.0,0.0,76,0.00,,,0.00,Wunderground v.1.15,2013-01-06 00:32:00,
2013-01-05 19:37:00,64.7,57.0,30.13,North,0,0.0,2.0,76,0.00,,,0.00,Wunderground v.1.15,2013-01-06 00:37:00,
2013-01-05 19:42:00,64.5,57.1,30.13,North,0,0.0,0.0,77,0.00,,,0.00,Wunderground v.1.15,2013-01-06 00:42:00,
2013-01-05 19:47:00,64.5,56.8,30.13,NNW,346,0.0,5.0,76,0.00,,,0.00,Wunderground v.1.15,2013-01-06 00:47:00,
2013-01-05 19:52:00,64.3,56.9,30.13,NNW,336,0.0,5.0,77,0.00,,,0.00,Wunderground v.1.15,2013-01-06 00:52:00,
2013-01-05 19:57:00,64.2,56.8,30.13,North,0,0.0,6.0,77,0.00,,,0.00,Wunderground v.1.15,2013-01-06 00:57:00,
2013-01-05 20:02:00,64.0,56.6,30.13,North,356,2.0,6.0,77,0.00,,,0.00,Wunderground v.1.15,2013-01-06 01:02:00,
2013-01-05 20:07:00,63.9,56.5,30.13,NNE,20,0.0,6.0,77,0.00,,,0.00,Wunderground v.1.15,2013-01-06 01:07:00,
2013-01-05 20:12:00,63.7,56.4,30.13,North,7,0.0,2.0,77,0.00,,,0.00,Wunderground v.1.15,2013-01-06 01:12:00,
2013-01-05 20:17:00,63.7,56.4,30.13,North,0,1.0,5.0,77,0.00,,,0.00,Wunderground v.1.15,2013-01-06 01:17:00,
2013-01-05 20:22:00,63.5,56.2,30.13,North,10,0.0,2.0,77,0.00,,,0.00,Wunderground v.1.15,2013-01-06 01:22:00,
2013-01-05 20:27:00,63.5,56.2,30.13,North,1,0.0,2.0,77,0.00,,,0.00,Wunderground v.1.15,2013-01-06 01:27:00,
2013-01-05 20:32:00,63.4,56.1,30.13,North,10,0.0,2.0,77,0.00,,,0.00,Wunderground v.1.15,2013-01-06 01:32:00,
2013-01-05 20:37:00,63.4,56.1,30.13,North,10,0.0,2.0,77,0.00,,,0.00,Wunderground v.1.15,2013-01-06 01:37:00,
2013-01-05 20:42:00,63.4,56.1,30.13,NNE,16,3.0,3.0,77,0.00,,,0.00,Wunderground v.1.15,2013-01-06 01:42:00,
2013-01-05 20:47:00,63.2,55.9,30.13,North,1,0.0,3.0,77,0.00,,,0.00,Wunderground v.1.15,2013-01-06 01:47:00,
2013-01-05 20:52:00,63.1,55.8,30.13,North,359,0.0,3.0,77,0.00,,,0.00,Wunderground v.1.15,2013-01-06 01:52:00,
2013-01-05 20:57:00,63.1,56.1,30.13,NNE,17,0.0,3.0,78,0.00,,,0.00,Wunderground v.1.15,2013-01-06 01:57:00,
2013-01-05 21:02:00,63.1,56.1,30.13,North,8,0.0,2.0,78,0.00,,,0.00,Wunderground v.1.15,2013-01-06 02:02:00,
2013-01-05 21:07:00,62.9,55.9,30.13,North,8,2.0,3.0,78,0.00,,,0.00,Wunderground v.1.15,2013-01-06 02:07:00,
2013-01-05 21:12:00,62.9,55.9,30.13,North,8,0.0,2.0,78,0.00,,,0.00,Wunderground v.1.15,2013-01-06 02:12:00,
2013-01-05 21:17:00,62.9,56.3,30.13,North,0,0.0,2.0,79,0.00,,,0.00,Wunderground v.1.15,2013-01-06 02:17:00,
2013-01-05 21:22:00,62.7,56.1,30.13,North,0,0.0,0.0,79,0.00,,,0.00,Wunderground v.1.15,2013-01-06 02:22:00,
2013-01-05 21:27:00,62.7,56.1,30.13,North,0,0.0,1.0,79,0.00,,,0.00,Wunderground v.1.15,2013-01-06 02:27:00,
2013-01-05 21:32:00,62.6,56.0,30.13,North,0,0.0,0.0,79,0.00,,,0.00,Wunderground v.1.15,2013-01-06 02:32:00,
2013-01-05 21:37:00,62.4,55.8,30.13,North,0,0.0,0.0,79,0.00,,,0.00,Wunderground v.1.15,2013-01-06 02:37:00,
2013-01-05 21:42:00,62.4,55.8,30.13,North,0,0.0,0.0,79,0.00,,,0.00,Wunderground v.1.15,2013-01-06 02:42:00,
2013-01-05 21:47:00,62.4,55.8,30.13,North,0,0.0,0.0,79,0.00,,,0.00,Wunderground v.1.15,2013-01-06 02:47:00,
2013-01-05 21:52:00,62.3,56.0,30.13,North,0,0.0,0.0,80,0.00,,,0.00,Wunderground v.1.15,2013-01-06 02:52:00,
2013-01-05 21:57:00,62.3,56.0,30.13,North,0,0.0,0.0,80,0.00,,,0.00,Wunderground v.1.15,2013-01-06 02:57:00,
2013-01-05 22:02:00,62.1,55.9,30.13,North,0,0.0,0.0,80,0.00,,,0.00,Wunderground v.1.15,2013-01-06 03:02:00,
2013-01-05 22:07:00,62.1,55.9,30.13,North,0,0.0,0.0,80,0.00,,,0.00,Wunderground v.1.15,2013-01-06 03:07:00,
2013-01-05 22:12:00,62.1,55.9,30.13,North,0,0.0,0.0,80,0.00,,,0.00,Wunderground v.1.15,2013-01-06 03:12:00,
2013-01-05 22:17:00,62.1,55.9,30.13,North,0,0.0,0.0,80,0.00,,,0.00,Wunderground v.1.15,2013-01-06 03:17:00,
2013-01-05 22:22:00,62.0,55.8,30.13,North,0,0.0,0.0,80,0.00,,,0.00,Wunderground v.1.15,2013-01-06 03:22:00,
2013-01-05 22:27:00,62.0,55.8,30.13,North,0,0.0,0.0,80,0.00,,,0.00,Wunderground v.1.15,2013-01-06 03:27:00,
2013-01-05 22:32:00,62.0,55.8,30.13,North,0,0.0,0.0,80,0.00,,,0.00,Wunderground v.1.15,2013-01-06 03:32:00,
2013-01-05 22:37:00,62.0,56.1,30.13,North,0,0.0,0.0,81,0.00,,,0.00,Wunderground v.1.15,2013-01-06 03:37:00,
2013-01-05 22:42:00,62.1,56.2,30.13,North,0,0.0,0.0,81,0.00,,,0.00,Wunderground v.1.15,2013-01-06 03:42:00,
2013-01-05 22:47:00,62.1,56.2,30.13,NE,52,0.0,0.0,81,0.00,,,0.00,Wunderground v.1.15,2013-01-06 03:47:00,
2013-01-05 22:52:00,62.1,56.2,30.13,NE,52,0.0,0.0,81,0.00,,,0.00,Wunderground v.1.15,2013-01-06 03:52:00,
2013-01-05 22:57:00,62.0,56.1,30.13,NE,52,0.0,0.0,81,0.00,,,0.00,Wunderground v.1.15,2013-01-06 03:57:00,
2013-01-05 23:02:00,62.0,56.1,30.12,NE,52,0.0,0.0,81,0.00,,,0.00,Wunderground v.1.15,2013-01-06 04:02:00,
2013-01-05 23:07:00,61.8,56.2,30.12,NE,52,0.0,0.0,82,0.00,,,0.00,Wunderground v.1.15,2013-01-06 04:07:00,
2013-01-05 23:12:00,61.8,56.2,30.12,NE,52,0.0,0.0,82,0.00,,,0.00,Wunderground v.1.15,2013-01-06 04:12:00,
2013-01-05 23:17:00,61.8,56.2,30.11,NE,52,0.0,0.0,82,0.00,,,0.00,Wunderground v.1.15,2013-01-06 04:17:00,
2013-01-05 23:22:00,61.8,56.2,30.11,NE,52,0.0,0.0,82,0.00,,,0.00,Wunderground v.1.15,2013-01-06 04:22:00,
2013-01-05 23:27:00,61.8,56.2,30.11,East,90,1.0,3.0,82,0.00,,,0.00,Wunderground v.1.15,2013-01-06 04:27:00,
2013-01-05 23:32:00,62.0,56.4,30.11,East,90,0.0,0.0,82,0.00,,,0.00,Wunderground v.1.15,2013-01-06 04:32:00,
2013-01-05 23:37:00,62.0,56.4,30.11,East,90,0.0,0.0,82,0.00,,,0.00,Wunderground v.1.15,2013-01-06 04:37:00,
2013-01-05 23:43:00,62.0,56.8,30.11,East,90,0.0,0.0,83,0.00,,,0.00,Wunderground v.1.15,2013-01-06 04:43:00,
2013-01-05 23:47:00,62.0,56.8,30.11,East,90,0.0,0.0,83,0.00,,,0.00,Wunderground v.1.15,2013-01-06 04:47:00,
2013-01-05 23:52:00,62.0,56.8,30.11,East,90,0.0,0.0,83,0.00,,,0.00,Wunderground v.1.15,2013-01-06 04:52:00,
2013-01-05 23:57:00,62.0,56.8,30.11,East,90,0.0,0.0,83,0.00,,,0.00,Wunderground v.1.15,2013-01-06 04:57:00,